sensor_id;sensor_type;location;lat;lon;timestamp;P1;durP1;ratioP1;P2;durP2;ratioP2
75649;SDS011;64245;51.282;22.494;2023-09-18T00:00:54;6.40;;;3.42;;
75649;SDS011;64245;51.282;22.494;2023-09-18T00:03:38;7.07;;;3.10;;
75649;SDS011;64245;51.282;22.494;2023-09-18T00:06:04;7.78;;;3.22;;
75649;SDS011;64245;51.282;22.494;2023-09-18T00:08:31;7.07;;;3.47;;
75649;SDS011;64245;51.282;22.494;2023-09-18T00:10:57;4.00;;;2.75;;
75649;SDS011;64245;51.282;22.494;2023-09-18T00:13:23;6.05;;;3.22;;
75649;SDS011;64245;51.282;22.494;2023-09-18T00:15:49;7.25;;;3.38;;
75649;SDS011;64245;51.282;22.494;2023-09-18T00:18:16;4.68;;;2.88;;
75649;SDS011;64245;51.282;22.494;2023-09-18T00:20:42;6.80;;;3.33;;
75649;SDS011;64245;51.282;22.494;2023-09-18T00:23:09;5.93;;;2.85;;
75649;SDS011;64245;51.282;22.494;2023-09-18T00:25:35;6.55;;;4.05;;
75649;SDS011;64245;51.282;22.494;2023-09-18T00:28:02;6.05;;;2.85;;
75649;SDS011;64245;51.282;22.494;2023-09-18T00:30:28;6.40;;;3.38;;
75649;SDS011;64245;51.282;22.494;2023-09-18T00:32:54;7.78;;;2.90;;
75649;SDS011;64245;51.282;22.494;2023-09-18T00:35:20;5.32;;;2.97;;
75649;SDS011;64245;51.282;22.494;2023-09-18T00:37:48;7.05;;;4.05;;
75649;SDS011;64245;51.282;22.494;2023-09-18T00:40:14;5.75;;;3.00;;
75649;SDS011;64245;51.282;22.494;2023-09-18T00:42:40;5.88;;;3.22;;
75649;SDS011;64245;51.282;22.494;2023-09-18T00:45:06;6.38;;;3.28;;
75649;SDS011;64245;51.282;22.494;2023-09-18T00:47:33;6.30;;;3.15;;
75649;SDS011;64245;51.282;22.494;2023-09-18T00:50:00;6.45;;;3.42;;
75649;SDS011;64245;51.282;22.494;2023-09-18T00:52:26;6.75;;;3.20;;
75649;SDS011;64245;51.282;22.494;2023-09-18T00:54:53;5.70;;;3.00;;
75649;SDS011;64245;51.282;22.494;2023-09-18T00:57:21;6.00;;;3.35;;
75649;SDS011;64245;51.282;22.494;2023-09-18T00:59:47;6.75;;;3.58;;
75649;SDS011;64245;51.282;22.494;2023-09-18T01:02:13;6.85;;;3.30;;
75649;SDS011;64245;51.282;22.494;2023-09-18T01:04:39;7.38;;;3.45;;
75649;SDS011;64245;51.282;22.494;2023-09-18T01:07:09;4.88;;;2.75;;
75649;SDS011;64245;51.282;22.494;2023-09-18T01:09:36;7.00;;;3.42;;
75649;SDS011;64245;51.282;22.494;2023-09-18T01:12:09;6.30;;;3.63;;
75649;SDS011;64245;51.282;22.494;2023-09-18T01:14:56;6.35;;;2.83;;
75649;SDS011;64245;51.282;22.494;2023-09-18T01:17:34;6.60;;;3.20;;
75649;SDS011;64245;51.282;22.494;2023-09-18T01:20:08;6.93;;;3.15;;
75649;SDS011;64245;51.282;22.494;2023-09-18T01:22:35;6.22;;;3.75;;
75649;SDS011;64245;51.282;22.494;2023-09-18T01:25:02;6.90;;;3.45;;
75649;SDS011;64245;51.282;22.494;2023-09-18T01:27:27;5.10;;;3.08;;
75649;SDS011;64245;51.282;22.494;2023-09-18T01:29:53;6.90;;;3.78;;
75649;SDS011;64245;51.282;22.494;2023-09-18T01:32:19;7.10;;;3.28;;
75649;SDS011;64245;51.282;22.494;2023-09-18T01:34:52;6.35;;;3.80;;
75649;SDS011;64245;51.282;22.494;2023-09-18T01:37:21;7.15;;;3.25;;
75649;SDS011;64245;51.282;22.494;2023-09-18T01:39:50;5.13;;;2.92;;
75649;SDS011;64245;51.282;22.494;2023-09-18T01:42:17;5.40;;;3.20;;
75649;SDS011;64245;51.282;22.494;2023-09-18T01:44:44;7.47;;;3.70;;
75649;SDS011;64245;51.282;22.494;2023-09-18T01:47:12;6.97;;;3.92;;
75649;SDS011;64245;51.282;22.494;2023-09-18T01:49:40;8.07;;;3.53;;
75649;SDS011;64245;51.282;22.494;2023-09-18T01:52:08;8.38;;;4.05;;
75649;SDS011;64245;51.282;22.494;2023-09-18T01:57:01;7.18;;;3.58;;
75649;SDS011;64245;51.282;22.494;2023-09-18T01:59:28;6.30;;;3.22;;
75649;SDS011;64245;51.282;22.494;2023-09-18T02:01:54;6.82;;;3.45;;
75649;SDS011;64245;51.282;22.494;2023-09-18T02:04:21;6.20;;;3.17;;
75649;SDS011;64245;51.282;22.494;2023-09-18T02:06:49;5.88;;;3.40;;
75649;SDS011;64245;51.282;22.494;2023-09-18T02:09:16;6.88;;;3.58;;
75649;SDS011;64245;51.282;22.494;2023-09-18T02:11:43;12.70;;;3.88;;
75649;SDS011;64245;51.282;22.494;2023-09-18T02:14:10;6.97;;;3.90;;
75649;SDS011;64245;51.282;22.494;2023-09-18T02:16:37;5.97;;;3.10;;
75649;SDS011;64245;51.282;22.494;2023-09-18T02:19:07;5.63;;;3.53;;
75649;SDS011;64245;51.282;22.494;2023-09-18T02:21:34;6.70;;;3.30;;
75649;SDS011;64245;51.282;22.494;2023-09-18T02:24:00;5.65;;;3.17;;
75649;SDS011;64245;51.282;22.494;2023-09-18T02:26:30;4.32;;;3.33;;
75649;SDS011;64245;51.282;22.494;2023-09-18T02:29:00;6.93;;;3.47;;
75649;SDS011;64245;51.282;22.494;2023-09-18T02:31:28;7.15;;;3.60;;
75649;SDS011;64245;51.282;22.494;2023-09-18T02:33:55;5.95;;;3.38;;
75649;SDS011;64245;51.282;22.494;2023-09-18T02:36:21;6.25;;;3.10;;
75649;SDS011;64245;51.282;22.494;2023-09-18T02:38:47;9.77;;;3.53;;
75649;SDS011;64245;51.282;22.494;2023-09-18T02:41:12;7.68;;;3.40;;
75649;SDS011;64245;51.282;22.494;2023-09-18T02:43:38;5.80;;;3.85;;
75649;SDS011;64245;51.282;22.494;2023-09-18T02:46:04;8.65;;;3.70;;
75649;SDS011;64245;51.282;22.494;2023-09-18T02:48:31;6.75;;;3.42;;
75649;SDS011;64245;51.282;22.494;2023-09-18T02:51:01;5.82;;;3.10;;
75649;SDS011;64245;51.282;22.494;2023-09-18T02:53:28;7.05;;;3.63;;
75649;SDS011;64245;51.282;22.494;2023-09-18T02:55:55;5.97;;;3.10;;
75649;SDS011;64245;51.282;22.494;2023-09-18T02:58:22;5.38;;;2.53;;
75649;SDS011;64245;51.282;22.494;2023-09-18T03:00:51;7.50;;;3.53;;
75649;SDS011;64245;51.282;22.494;2023-09-18T03:03:23;8.65;;;3.42;;
75649;SDS011;64245;51.282;22.494;2023-09-18T03:05:49;6.25;;;3.50;;
75649;SDS011;64245;51.282;22.494;2023-09-18T03:08:15;6.90;;;3.03;;
75649;SDS011;64245;51.282;22.494;2023-09-18T03:10:44;5.22;;;2.67;;
75649;SDS011;64245;51.282;22.494;2023-09-18T03:13:11;6.53;;;2.90;;
75649;SDS011;64245;51.282;22.494;2023-09-18T03:15:38;7.85;;;3.20;;
75649;SDS011;64245;51.282;22.494;2023-09-18T03:18:04;7.35;;;3.28;;
75649;SDS011;64245;51.282;22.494;2023-09-18T03:20:32;5.85;;;2.53;;
75649;SDS011;64245;51.282;22.494;2023-09-18T03:22:59;5.45;;;2.92;;
75649;SDS011;64245;51.282;22.494;2023-09-18T03:25:26;6.15;;;3.25;;
75649;SDS011;64245;51.282;22.494;2023-09-18T03:27:56;8.50;;;3.50;;
75649;SDS011;64245;51.282;22.494;2023-09-18T03:30:23;6.68;;;3.20;;
75649;SDS011;64245;51.282;22.494;2023-09-18T03:32:50;6.75;;;3.72;;
75649;SDS011;64245;51.282;22.494;2023-09-18T03:35:18;5.15;;;2.83;;
75649;SDS011;64245;51.282;22.494;2023-09-18T03:37:45;7.03;;;3.67;;
75649;SDS011;64245;51.282;22.494;2023-09-18T03:40:11;5.35;;;2.92;;
75649;SDS011;64245;51.282;22.494;2023-09-18T03:42:37;8.05;;;3.45;;
75649;SDS011;64245;51.282;22.494;2023-09-18T03:45:05;5.03;;;3.35;;
75649;SDS011;64245;51.282;22.494;2023-09-18T03:47:33;8.15;;;3.08;;
75649;SDS011;64245;51.282;22.494;2023-09-18T03:50:01;5.15;;;2.65;;
75649;SDS011;64245;51.282;22.494;2023-09-18T03:52:30;5.45;;;2.70;;
75649;SDS011;64245;51.282;22.494;2023-09-18T03:54:55;6.82;;;3.17;;
75649;SDS011;64245;51.282;22.494;2023-09-18T03:57:22;5.55;;;2.88;;
75649;SDS011;64245;51.282;22.494;2023-09-18T03:59:47;5.68;;;2.72;;
75649;SDS011;64245;51.282;22.494;2023-09-18T04:02:13;5.00;;;2.92;;
75649;SDS011;64245;51.282;22.494;2023-09-18T04:04:39;5.72;;;3.15;;
75649;SDS011;64245;51.282;22.494;2023-09-18T04:07:05;5.07;;;2.40;;
75649;SDS011;64245;51.282;22.494;2023-09-18T04:09:31;5.38;;;3.17;;
75649;SDS011;64245;51.282;22.494;2023-09-18T04:12:00;6.03;;;3.08;;
75649;SDS011;64245;51.282;22.494;2023-09-18T04:14:27;8.70;;;3.30;;
75649;SDS011;64245;51.282;22.494;2023-09-18T04:16:53;5.25;;;3.10;;
75649;SDS011;64245;51.282;22.494;2023-09-18T04:19:19;7.63;;;3.22;;
75649;SDS011;64245;51.282;22.494;2023-09-18T04:21:45;5.88;;;3.65;;
75649;SDS011;64245;51.282;22.494;2023-09-18T04:24:10;5.13;;;2.63;;
75649;SDS011;64245;51.282;22.494;2023-09-18T04:26:36;6.55;;;3.33;;
75649;SDS011;64245;51.282;22.494;2023-09-18T04:29:03;6.88;;;3.40;;
75649;SDS011;64245;51.282;22.494;2023-09-18T04:31:29;8.88;;;3.65;;
75649;SDS011;64245;51.282;22.494;2023-09-18T04:33:56;8.68;;;3.78;;
75649;SDS011;64245;51.282;22.494;2023-09-18T04:36:22;7.03;;;3.20;;
75649;SDS011;64245;51.282;22.494;2023-09-18T04:38:48;5.93;;;3.00;;
75649;SDS011;64245;51.282;22.494;2023-09-18T04:41:14;6.78;;;3.17;;
75649;SDS011;64245;51.282;22.494;2023-09-18T04:43:40;6.13;;;3.33;;
75649;SDS011;64245;51.282;22.494;2023-09-18T04:46:08;6.13;;;2.80;;
75649;SDS011;64245;51.282;22.494;2023-09-18T04:48:34;5.95;;;3.15;;
75649;SDS011;64245;51.282;22.494;2023-09-18T04:51:00;6.45;;;2.95;;
75649;SDS011;64245;51.282;22.494;2023-09-18T04:53:29;6.68;;;2.88;;
75649;SDS011;64245;51.282;22.494;2023-09-18T04:55:56;7.13;;;3.67;;
75649;SDS011;64245;51.282;22.494;2023-09-18T04:58:21;8.38;;;3.33;;
75649;SDS011;64245;51.282;22.494;2023-09-18T05:00:58;8.77;;;3.60;;
75649;SDS011;64245;51.282;22.494;2023-09-18T05:03:24;6.15;;;3.13;;
75649;SDS011;64245;51.282;22.494;2023-09-18T05:05:52;7.10;;;3.25;;
75649;SDS011;64245;51.282;22.494;2023-09-18T05:08:18;6.53;;;3.40;;
75649;SDS011;64245;51.282;22.494;2023-09-18T05:10:45;6.93;;;3.67;;
75649;SDS011;64245;51.282;22.494;2023-09-18T05:13:11;6.68;;;3.55;;
75649;SDS011;64245;51.282;22.494;2023-09-18T05:15:38;8.07;;;3.30;;
75649;SDS011;64245;51.282;22.494;2023-09-18T05:18:03;6.95;;;4.10;;
75649;SDS011;64245;51.282;22.494;2023-09-18T05:20:30;7.25;;;3.33;;
75649;SDS011;64245;51.282;22.494;2023-09-18T05:22:57;7.88;;;3.42;;
75649;SDS011;64245;51.282;22.494;2023-09-18T05:25:25;7.18;;;3.30;;
75649;SDS011;64245;51.282;22.494;2023-09-18T05:27:53;7.05;;;3.40;;
75649;SDS011;64245;51.282;22.494;2023-09-18T05:30:30;6.28;;;3.50;;
75649;SDS011;64245;51.282;22.494;2023-09-18T05:32:59;7.63;;;3.65;;
75649;SDS011;64245;51.282;22.494;2023-09-18T05:35:32;6.38;;;3.38;;
75649;SDS011;64245;51.282;22.494;2023-09-18T05:37:58;7.22;;;3.25;;
75649;SDS011;64245;51.282;22.494;2023-09-18T05:40:25;8.20;;;3.55;;
75649;SDS011;64245;51.282;22.494;2023-09-18T05:42:55;6.78;;;3.45;;
75649;SDS011;64245;51.282;22.494;2023-09-18T05:45:22;8.35;;;3.63;;
75649;SDS011;64245;51.282;22.494;2023-09-18T05:47:48;8.55;;;4.00;;
75649;SDS011;64245;51.282;22.494;2023-09-18T05:50:15;6.88;;;3.92;;
75649;SDS011;64245;51.282;22.494;2023-09-18T05:52:43;12.32;;;4.93;;
75649;SDS011;64245;51.282;22.494;2023-09-18T05:55:10;9.02;;;4.18;;
75649;SDS011;64245;51.282;22.494;2023-09-18T05:57:36;8.98;;;4.28;;
75649;SDS011;64245;51.282;22.494;2023-09-18T06:00:02;8.35;;;4.10;;
75649;SDS011;64245;51.282;22.494;2023-09-18T06:02:28;8.50;;;4.13;;
75649;SDS011;64245;51.282;22.494;2023-09-18T06:04:55;6.03;;;4.00;;
75649;SDS011;64245;51.282;22.494;2023-09-18T06:07:28;6.75;;;3.75;;
75649;SDS011;64245;51.282;22.494;2023-09-18T06:09:55;9.52;;;4.43;;
75649;SDS011;64245;51.282;22.494;2023-09-18T06:12:22;8.98;;;3.88;;
75649;SDS011;64245;51.282;22.494;2023-09-18T06:14:49;7.88;;;4.18;;
75649;SDS011;64245;51.282;22.494;2023-09-18T06:17:14;8.77;;;3.58;;
75649;SDS011;64245;51.282;22.494;2023-09-18T06:19:42;6.68;;;4.22;;
75649;SDS011;64245;51.282;22.494;2023-09-18T06:22:08;8.85;;;4.80;;
75649;SDS011;64245;51.282;22.494;2023-09-18T06:24:34;8.10;;;4.65;;
75649;SDS011;64245;51.282;22.494;2023-09-18T06:27:00;10.35;;;4.93;;
75649;SDS011;64245;51.282;22.494;2023-09-18T06:29:27;6.35;;;4.35;;
75649;SDS011;64245;51.282;22.494;2023-09-18T06:31:53;9.95;;;5.20;;
75649;SDS011;64245;51.282;22.494;2023-09-18T06:34:19;7.35;;;4.15;;
75649;SDS011;64245;51.282;22.494;2023-09-18T06:36:44;10.70;;;5.03;;
75649;SDS011;64245;51.282;22.494;2023-09-18T06:39:10;8.50;;;4.32;;
75649;SDS011;64245;51.282;22.494;2023-09-18T06:41:36;7.68;;;4.57;;
75649;SDS011;64245;51.282;22.494;2023-09-18T06:44:02;6.82;;;3.83;;
75649;SDS011;64245;51.282;22.494;2023-09-18T06:46:28;7.50;;;3.92;;
75649;SDS011;64245;51.282;22.494;2023-09-18T06:48:57;7.07;;;4.30;;
75649;SDS011;64245;51.282;22.494;2023-09-18T06:51:28;7.13;;;3.35;;
75649;SDS011;64245;51.282;22.494;2023-09-18T06:53:53;8.38;;;4.53;;
75649;SDS011;64245;51.282;22.494;2023-09-18T06:56:20;5.97;;;3.33;;
75649;SDS011;64245;51.282;22.494;2023-09-18T06:58:46;5.72;;;3.13;;
75649;SDS011;64245;51.282;22.494;2023-09-18T07:01:19;5.43;;;3.85;;
75649;SDS011;64245;51.282;22.494;2023-09-18T07:03:46;6.78;;;4.03;;
75649;SDS011;64245;51.282;22.494;2023-09-18T07:06:16;7.20;;;4.45;;
75649;SDS011;64245;51.282;22.494;2023-09-18T07:08:44;7.30;;;4.28;;
75649;SDS011;64245;51.282;22.494;2023-09-18T07:11:09;6.22;;;3.67;;
75649;SDS011;64245;51.282;22.494;2023-09-18T07:13:37;7.10;;;3.85;;
75649;SDS011;64245;51.282;22.494;2023-09-18T07:16:03;7.07;;;3.85;;
75649;SDS011;64245;51.282;22.494;2023-09-18T07:18:29;6.20;;;3.85;;
75649;SDS011;64245;51.282;22.494;2023-09-18T07:20:55;7.82;;;3.63;;
75649;SDS011;64245;51.282;22.494;2023-09-18T07:23:21;11.20;;;5.13;;
75649;SDS011;64245;51.282;22.494;2023-09-18T07:25:48;7.28;;;5.28;;
75649;SDS011;64245;51.282;22.494;2023-09-18T07:28:14;8.98;;;4.43;;
75649;SDS011;64245;51.282;22.494;2023-09-18T07:30:43;7.63;;;4.10;;
75649;SDS011;64245;51.282;22.494;2023-09-18T07:33:10;8.02;;;4.63;;
75649;SDS011;64245;51.282;22.494;2023-09-18T07:35:39;8.02;;;4.05;;
75649;SDS011;64245;51.282;22.494;2023-09-18T07:38:05;7.68;;;4.68;;
75649;SDS011;64245;51.282;22.494;2023-09-18T07:40:31;6.72;;;4.38;;
75649;SDS011;64245;51.282;22.494;2023-09-18T07:42:57;8.20;;;4.65;;
75649;SDS011;64245;51.282;22.494;2023-09-18T07:45:23;5.95;;;3.95;;
75649;SDS011;64245;51.282;22.494;2023-09-18T07:47:49;7.03;;;4.40;;
75649;SDS011;64245;51.282;22.494;2023-09-18T07:50:18;6.22;;;4.30;;
75649;SDS011;64245;51.282;22.494;2023-09-18T07:52:44;6.63;;;4.10;;
75649;SDS011;64245;51.282;22.494;2023-09-18T07:55:10;5.93;;;4.35;;
75649;SDS011;64245;51.282;22.494;2023-09-18T07:57:36;5.88;;;3.95;;
75649;SDS011;64245;51.282;22.494;2023-09-18T08:00:03;8.73;;;5.10;;
75649;SDS011;64245;51.282;22.494;2023-09-18T08:02:37;7.25;;;3.97;;
75649;SDS011;64245;51.282;22.494;2023-09-18T08:05:04;6.32;;;4.22;;
75649;SDS011;64245;51.282;22.494;2023-09-18T08:07:30;6.80;;;4.43;;
75649;SDS011;64245;51.282;22.494;2023-09-18T08:09:56;7.43;;;4.35;;
75649;SDS011;64245;51.282;22.494;2023-09-18T08:12:23;6.57;;;3.80;;
75649;SDS011;64245;51.282;22.494;2023-09-18T08:14:49;7.75;;;4.57;;
75649;SDS011;64245;51.282;22.494;2023-09-18T08:17:16;4.72;;;3.72;;
75649;SDS011;64245;51.282;22.494;2023-09-18T08:19:41;6.25;;;3.88;;
75649;SDS011;64245;51.282;22.494;2023-09-18T08:22:10;6.72;;;4.05;;
75649;SDS011;64245;51.282;22.494;2023-09-18T08:24:40;5.07;;;3.60;;
75649;SDS011;64245;51.282;22.494;2023-09-18T08:27:07;5.40;;;3.60;;
75649;SDS011;64245;51.282;22.494;2023-09-18T08:29:33;5.68;;;3.95;;
75649;SDS011;64245;51.282;22.494;2023-09-18T08:31:59;6.57;;;4.05;;
75649;SDS011;64245;51.282;22.494;2023-09-18T08:34:25;6.05;;;3.80;;
75649;SDS011;64245;51.282;22.494;2023-09-18T08:36:51;7.03;;;4.45;;
75649;SDS011;64245;51.282;22.494;2023-09-18T08:39:16;4.93;;;3.90;;
75649;SDS011;64245;51.282;22.494;2023-09-18T08:41:43;6.55;;;4.03;;
75649;SDS011;64245;51.282;22.494;2023-09-18T08:44:14;5.65;;;3.90;;
75649;SDS011;64245;51.282;22.494;2023-09-18T08:46:40;5.63;;;3.60;;
75649;SDS011;64245;51.282;22.494;2023-09-18T08:49:09;5.20;;;3.88;;
75649;SDS011;64245;51.282;22.494;2023-09-18T08:51:37;6.38;;;3.38;;
75649;SDS011;64245;51.282;22.494;2023-09-18T08:54:04;5.47;;;4.15;;
75649;SDS011;64245;51.282;22.494;2023-09-18T08:56:31;6.30;;;3.80;;
75649;SDS011;64245;51.282;22.494;2023-09-18T08:58:59;5.47;;;3.33;;
75649;SDS011;64245;51.282;22.494;2023-09-18T09:01:25;5.97;;;3.40;;
75649;SDS011;64245;51.282;22.494;2023-09-18T09:03:51;6.15;;;3.50;;
75649;SDS011;64245;51.282;22.494;2023-09-18T09:06:17;6.25;;;4.15;;
75649;SDS011;64245;51.282;22.494;2023-09-18T09:08:43;6.55;;;3.60;;
75649;SDS011;64245;51.282;22.494;2023-09-18T09:11:09;5.40;;;3.67;;
75649;SDS011;64245;51.282;22.494;2023-09-18T09:13:35;5.45;;;3.55;;
75649;SDS011;64245;51.282;22.494;2023-09-18T09:16:01;7.00;;;4.13;;
75649;SDS011;64245;51.282;22.494;2023-09-18T09:18:28;5.25;;;3.55;;
75649;SDS011;64245;51.282;22.494;2023-09-18T09:20:55;5.80;;;4.30;;
75649;SDS011;64245;51.282;22.494;2023-09-18T09:23:27;4.55;;;3.45;;
75649;SDS011;64245;51.282;22.494;2023-09-18T09:26:11;7.75;;;3.85;;
75649;SDS011;64245;51.282;22.494;2023-09-18T09:28:39;5.60;;;3.47;;
75649;SDS011;64245;51.282;22.494;2023-09-18T09:31:06;5.68;;;3.92;;
75649;SDS011;64245;51.282;22.494;2023-09-18T09:33:32;5.45;;;3.95;;
75649;SDS011;64245;51.282;22.494;2023-09-18T09:35:58;4.60;;;3.90;;
75649;SDS011;64245;51.282;22.494;2023-09-18T09:38:30;5.68;;;3.90;;
75649;SDS011;64245;51.282;22.494;2023-09-18T09:40:59;4.35;;;3.28;;
75649;SDS011;64245;51.282;22.494;2023-09-18T09:43:26;4.72;;;3.28;;
75649;SDS011;64245;51.282;22.494;2023-09-18T09:46:00;6.15;;;4.05;;
75649;SDS011;64245;51.282;22.494;2023-09-18T09:48:27;4.22;;;3.33;;
75649;SDS011;64245;51.282;22.494;2023-09-18T09:50:58;5.95;;;3.97;;
75649;SDS011;64245;51.282;22.494;2023-09-18T09:56:12;3.97;;;3.08;;
75649;SDS011;64245;51.282;22.494;2023-09-18T09:58:39;8.18;;;3.53;;
75649;SDS011;64245;51.282;22.494;2023-09-18T10:01:11;4.85;;;3.22;;
75649;SDS011;64245;51.282;22.494;2023-09-18T10:03:46;4.07;;;2.75;;
75649;SDS011;64245;51.282;22.494;2023-09-18T10:06:13;5.40;;;3.42;;
75649;SDS011;64245;51.282;22.494;2023-09-18T10:08:39;4.30;;;3.08;;
75649;SDS011;64245;51.282;22.494;2023-09-18T10:11:07;4.28;;;3.17;;
75649;SDS011;64245;51.282;22.494;2023-09-18T10:13:55;6.40;;;3.20;;
75649;SDS011;64245;51.282;22.494;2023-09-18T10:16:26;3.83;;;3.30;;
75649;SDS011;64245;51.282;22.494;2023-09-18T10:18:57;4.95;;;3.25;;
75649;SDS011;64245;51.282;22.494;2023-09-18T10:21:31;4.68;;;3.42;;
75649;SDS011;64245;51.282;22.494;2023-09-18T10:24:14;4.90;;;3.20;;
75649;SDS011;64245;51.282;22.494;2023-09-18T10:26:55;5.32;;;3.40;;
75649;SDS011;64245;51.282;22.494;2023-09-18T10:29:22;4.63;;;3.42;;
75649;SDS011;64245;51.282;22.494;2023-09-18T10:34:16;6.05;;;3.47;;
75649;SDS011;64245;51.282;22.494;2023-09-18T10:36:44;5.65;;;3.80;;
75649;SDS011;64245;51.282;22.494;2023-09-18T10:39:18;5.00;;;3.03;;
75649;SDS011;64245;51.282;22.494;2023-09-18T10:41:53;5.65;;;3.20;;
75649;SDS011;64245;51.282;22.494;2023-09-18T10:44:20;6.43;;;3.97;;
75649;SDS011;64245;51.282;22.494;2023-09-18T10:46:46;5.93;;;3.58;;
75649;SDS011;64245;51.282;22.494;2023-09-18T10:49:14;5.53;;;3.53;;
75649;SDS011;64245;51.282;22.494;2023-09-18T10:51:43;5.72;;;3.10;;
75649;SDS011;64245;51.282;22.494;2023-09-18T10:54:11;4.63;;;2.90;;
75649;SDS011;64245;51.282;22.494;2023-09-18T10:56:41;4.10;;;3.10;;
75649;SDS011;64245;51.282;22.494;2023-09-18T10:59:08;3.88;;;3.08;;
75649;SDS011;64245;51.282;22.494;2023-09-18T11:01:34;4.05;;;3.20;;
75649;SDS011;64245;51.282;22.494;2023-09-18T11:04:03;7.38;;;3.78;;
75649;SDS011;64245;51.282;22.494;2023-09-18T11:07:00;3.45;;;2.90;;
75649;SDS011;64245;51.282;22.494;2023-09-18T11:09:32;3.97;;;2.83;;
75649;SDS011;64245;51.282;22.494;2023-09-18T11:12:07;4.32;;;3.22;;
75649;SDS011;64245;51.282;22.494;2023-09-18T11:17:34;4.80;;;2.83;;
75649;SDS011;64245;51.282;22.494;2023-09-18T11:22:38;4.72;;;3.03;;
75649;SDS011;64245;51.282;22.494;2023-09-18T11:28:01;4.93;;;2.70;;
75649;SDS011;64245;51.282;22.494;2023-09-18T11:30:30;4.55;;;2.78;;
75649;SDS011;64245;51.282;22.494;2023-09-18T11:32:56;4.25;;;3.28;;
75649;SDS011;64245;51.282;22.494;2023-09-18T11:35:22;3.88;;;2.83;;
75649;SDS011;64245;51.282;22.494;2023-09-18T11:38:02;6.45;;;3.08;;
75649;SDS011;64245;51.282;22.494;2023-09-18T11:40:33;2.95;;;2.58;;
75649;SDS011;64245;51.282;22.494;2023-09-18T11:43:20;3.00;;;2.30;;
75649;SDS011;64245;51.282;22.494;2023-09-18T11:45:51;4.15;;;2.67;;
75649;SDS011;64245;51.282;22.494;2023-09-18T11:48:19;4.55;;;3.15;;
75649;SDS011;64245;51.282;22.494;2023-09-18T11:50:47;3.63;;;2.55;;
75649;SDS011;64245;51.282;22.494;2023-09-18T11:53:16;4.20;;;2.83;;
75649;SDS011;64245;51.282;22.494;2023-09-18T11:55:45;3.55;;;3.05;;
75649;SDS011;64245;51.282;22.494;2023-09-18T11:58:12;4.32;;;2.67;;
75649;SDS011;64245;51.282;22.494;2023-09-18T12:00:38;4.68;;;3.05;;
75649;SDS011;64245;51.282;22.494;2023-09-18T12:03:15;4.22;;;2.97;;
75649;SDS011;64245;51.282;22.494;2023-09-18T12:05:55;4.22;;;2.85;;
75649;SDS011;64245;51.282;22.494;2023-09-18T12:08:22;4.28;;;2.55;;
75649;SDS011;64245;51.282;22.494;2023-09-18T12:10:52;3.50;;;2.80;;
75649;SDS011;64245;51.282;22.494;2023-09-18T12:13:24;3.63;;;2.40;;
75649;SDS011;64245;51.282;22.494;2023-09-18T12:15:55;3.00;;;2.33;;
75649;SDS011;64245;51.282;22.494;2023-09-18T12:18:22;3.05;;;2.15;;
75649;SDS011;64245;51.282;22.494;2023-09-18T12:20:49;4.10;;;2.35;;
75649;SDS011;64245;51.282;22.494;2023-09-18T12:23:16;3.17;;;2.53;;
75649;SDS011;64245;51.282;22.494;2023-09-18T12:25:47;3.53;;;2.60;;
75649;SDS011;64245;51.282;22.494;2023-09-18T12:28:16;4.53;;;2.60;;
75649;SDS011;64245;51.282;22.494;2023-09-18T12:30:42;2.85;;;2.40;;
75649;SDS011;64245;51.282;22.494;2023-09-18T12:33:12;3.38;;;2.45;;
75649;SDS011;64245;51.282;22.494;2023-09-18T12:35:41;3.63;;;2.97;;
75649;SDS011;64245;51.282;22.494;2023-09-18T12:38:18;7.97;;;2.83;;
75649;SDS011;64245;51.282;22.494;2023-09-18T12:40:48;3.58;;;2.47;;
75649;SDS011;64245;51.282;22.494;2023-09-18T12:43:14;4.25;;;2.70;;
75649;SDS011;64245;51.282;22.494;2023-09-18T12:45:41;4.43;;;2.92;;
75649;SDS011;64245;51.282;22.494;2023-09-18T12:48:08;3.10;;;2.63;;
75649;SDS011;64245;51.282;22.494;2023-09-18T12:50:35;3.42;;;2.38;;
75649;SDS011;64245;51.282;22.494;2023-09-18T12:53:14;5.22;;;2.75;;
75649;SDS011;64245;51.282;22.494;2023-09-18T12:55:40;4.03;;;2.55;;
75649;SDS011;64245;51.282;22.494;2023-09-18T12:58:11;4.40;;;2.50;;
75649;SDS011;64245;51.282;22.494;2023-09-18T13:00:44;2.67;;;1.90;;
75649;SDS011;64245;51.282;22.494;2023-09-18T13:03:17;3.85;;;2.65;;
75649;SDS011;64245;51.282;22.494;2023-09-18T13:05:44;3.20;;;2.85;;
75649;SDS011;64245;51.282;22.494;2023-09-18T13:08:10;3.72;;;2.20;;
75649;SDS011;64245;51.282;22.494;2023-09-18T13:13:12;3.42;;;2.38;;
75649;SDS011;64245;51.282;22.494;2023-09-18T13:15:45;3.63;;;2.30;;
75649;SDS011;64245;51.282;22.494;2023-09-18T13:18:13;3.60;;;2.35;;
75649;SDS011;64245;51.282;22.494;2023-09-18T13:20:40;3.70;;;2.67;;
75649;SDS011;64245;51.282;22.494;2023-09-18T13:23:08;3.25;;;2.30;;
75649;SDS011;64245;51.282;22.494;2023-09-18T13:25:40;2.50;;;2.05;;
75649;SDS011;64245;51.282;22.494;2023-09-18T13:28:13;5.32;;;2.47;;
75649;SDS011;64245;51.282;22.494;2023-09-18T13:30:40;3.50;;;2.35;;
75649;SDS011;64245;51.282;22.494;2023-09-18T13:33:11;3.10;;;2.03;;
75649;SDS011;64245;51.282;22.494;2023-09-18T13:35:39;3.58;;;2.58;;
75649;SDS011;64245;51.282;22.494;2023-09-18T13:38:08;3.88;;;2.10;;
75649;SDS011;64245;51.282;22.494;2023-09-18T13:40:36;4.45;;;2.38;;
75649;SDS011;64245;51.282;22.494;2023-09-18T13:43:03;2.65;;;1.90;;
75649;SDS011;64245;51.282;22.494;2023-09-18T13:45:30;3.95;;;2.45;;
75649;SDS011;64245;51.282;22.494;2023-09-18T13:47:58;3.17;;;2.05;;
75649;SDS011;64245;51.282;22.494;2023-09-18T13:50:24;3.65;;;2.13;;
75649;SDS011;64245;51.282;22.494;2023-09-18T13:52:50;3.95;;;2.47;;
75649;SDS011;64245;51.282;22.494;2023-09-18T13:55:16;3.50;;;2.83;;
75649;SDS011;64245;51.282;22.494;2023-09-18T13:57:43;3.65;;;2.70;;
75649;SDS011;64245;51.282;22.494;2023-09-18T14:00:09;4.20;;;2.13;;
75649;SDS011;64245;51.282;22.494;2023-09-18T14:02:40;3.85;;;2.15;;
75649;SDS011;64245;51.282;22.494;2023-09-18T14:05:07;3.15;;;2.30;;
75649;SDS011;64245;51.282;22.494;2023-09-18T14:07:35;3.45;;;2.30;;
75649;SDS011;64245;51.282;22.494;2023-09-18T14:10:04;3.05;;;2.10;;
75649;SDS011;64245;51.282;22.494;2023-09-18T14:12:36;4.47;;;3.08;;
75649;SDS011;64245;51.282;22.494;2023-09-18T14:15:03;3.90;;;2.60;;
75649;SDS011;64245;51.282;22.494;2023-09-18T14:17:31;2.95;;;2.30;;
75649;SDS011;64245;51.282;22.494;2023-09-18T14:19:56;5.22;;;2.50;;
75649;SDS011;64245;51.282;22.494;2023-09-18T14:22:22;4.53;;;2.95;;
75649;SDS011;64245;51.282;22.494;2023-09-18T14:24:49;3.05;;;2.40;;
75649;SDS011;64245;51.282;22.494;2023-09-18T14:27:19;3.10;;;2.33;;
75649;SDS011;64245;51.282;22.494;2023-09-18T14:29:47;3.22;;;2.08;;
75649;SDS011;64245;51.282;22.494;2023-09-18T14:32:14;4.43;;;2.60;;
75649;SDS011;64245;51.282;22.494;2023-09-18T14:34:40;3.00;;;2.22;;
75649;SDS011;64245;51.282;22.494;2023-09-18T14:37:07;4.22;;;2.58;;
75649;SDS011;64245;51.282;22.494;2023-09-18T14:39:39;4.13;;;2.58;;
75649;SDS011;64245;51.282;22.494;2023-09-18T14:42:06;4.25;;;2.58;;
75649;SDS011;64245;51.282;22.494;2023-09-18T14:44:32;3.58;;;2.30;;
75649;SDS011;64245;51.282;22.494;2023-09-18T14:46:58;3.92;;;2.47;;
75649;SDS011;64245;51.282;22.494;2023-09-18T14:49:25;3.20;;;2.42;;
75649;SDS011;64245;51.282;22.494;2023-09-18T14:51:53;5.78;;;2.60;;
75649;SDS011;64245;51.282;22.494;2023-09-18T14:54:20;4.85;;;2.95;;
75649;SDS011;64245;51.282;22.494;2023-09-18T14:56:46;3.45;;;2.55;;